createdAt,value
2023-01-09T00:01:13.387Z,98525.19
2023-01-09T00:03:41.107Z,98507.34
2023-01-09T00:06:08.891Z,98504.97
2023-01-09T00:08:38.018Z,98509.66
2023-01-09T00:11:06.794Z,98507.19
2023-01-09T00:13:34.723Z,98502.34
2023-01-09T00:16:02.511Z,98496.81
2023-01-09T00:18:30.209Z,98509.53
2023-01-09T00:21:00.797Z,98502.56
2023-01-09T00:23:28.632Z,98499.63
2023-01-09T00:26:05.326Z,98495.25
2023-01-09T00:28:35.317Z,98491.84
2023-01-09T00:31:05.414Z,98488.84
2023-01-09T00:33:34.839Z,98492.16
2023-01-09T00:36:03.108Z,98482.75
2023-01-09T00:38:31.053Z,98475.59
2023-01-09T00:41:00.582Z,98480.53
2023-01-09T00:43:33.514Z,98483.88
2023-01-09T00:46:04.890Z,98479.22
2023-01-09T00:48:34.525Z,98470.75
2023-01-09T00:51:02.386Z,98484.25
2023-01-09T00:53:33.807Z,98474.81
2023-01-09T00:56:06.207Z,98480.09
2023-01-09T00:58:36.220Z,98484.75
2023-01-09T01:01:04.320Z,98486.88
2023-01-09T01:03:32.128Z,98480.81
2023-01-09T01:06:17.686Z,98477.34
2023-01-09T01:08:46.272Z,98493.97
2023-01-09T01:11:14.058Z,98504.94
2023-01-09T01:13:43.509Z,98501.56
2023-01-09T01:16:14.195Z,98499.50
2023-01-09T01:18:42.043Z,98500.72
2023-01-09T01:21:11.104Z,98504.66
2023-01-09T01:23:39.161Z,98498.97
2023-01-09T01:26:08.414Z,98495.81
2023-01-09T01:28:36.612Z,98494.50
2023-01-09T01:31:06.694Z,98497.31
2023-01-09T01:33:35.408Z,98494.31
2023-01-09T01:36:05.160Z,98497.19
2023-01-09T01:38:33.963Z,98500.59
2023-01-09T01:41:02.758Z,98500.38
2023-01-09T01:43:52.805Z,98506.22
2023-01-09T01:46:21.975Z,98512.66
2023-01-09T01:48:54.382Z,98507.28
2023-01-09T01:51:24.697Z,98517.00
2023-01-09T01:53:56.936Z,98524.69
2023-01-09T01:56:29.237Z,98537.81
2023-01-09T01:59:00.241Z,98549.34
2023-01-09T02:01:30.705Z,98547.50
2023-01-09T02:03:59.879Z,98548.19
2023-01-09T02:06:28.348Z,98548.75
2023-01-09T02:08:56.695Z,98554.13
2023-01-09T02:11:24.438Z,98551.81
2023-01-09T02:13:52.822Z,98546.16
2023-01-09T02:16:35.717Z,98540.72
2023-01-09T02:19:12.591Z,98530.84
2023-01-09T02:21:51.345Z,98543.41
2023-01-09T02:24:37.696Z,98536.28
2023-01-09T02:27:33.569Z,98533.97
2023-01-09T02:30:33.043Z,98532.50
2023-01-09T02:33:10.441Z,98530.03
2023-01-09T02:35:59.166Z,98542.78
2023-01-09T02:38:36.724Z,98543.88
2023-01-09T02:41:12.685Z,98533.81
2023-01-09T02:43:41.542Z,98543.13
2023-01-09T02:46:20.306Z,98550.00
2023-01-09T02:48:52.022Z,98559.13
2023-01-09T02:51:27.107Z,98548.41
2023-01-09T02:54:15.833Z,98561.06
2023-01-09T02:56:59.659Z,98562.91
2023-01-09T02:59:35.542Z,98582.56
2023-01-09T03:02:22.832Z,98584.94
2023-01-09T03:05:00.530Z,98592.00
2023-01-09T03:07:35.700Z,98599.84
2023-01-09T03:10:11.323Z,98609.41
2023-01-09T03:12:41.662Z,98610.00
2023-01-09T03:15:12.649Z,98611.09
2023-01-09T03:17:45.136Z,98613.03
2023-01-09T03:20:16.194Z,98621.72
2023-01-09T03:22:53.806Z,98624.25
2023-01-09T03:25:21.840Z,98630.72
2023-01-09T03:27:53.527Z,98622.84
2023-01-09T03:30:21.576Z,98629.78
2023-01-09T03:32:50.930Z,98631.44
2023-01-09T03:35:18.577Z,98632.19
2023-01-09T03:37:46.473Z,98625.63
2023-01-09T03:40:14.389Z,98637.84
2023-01-09T03:42:42.147Z,98647.25
2023-01-09T03:45:10.727Z,98631.19
2023-01-09T03:47:38.437Z,98637.28
2023-01-09T03:50:09.678Z,98648.94
2023-01-09T03:52:37.653Z,98666.75
2023-01-09T03:55:06.911Z,98666.38
2023-01-09T03:57:34.795Z,98674.63
2023-01-09T04:00:02.832Z,98677.88
2023-01-09T04:02:39.787Z,98685.72
2023-01-09T04:05:09.842Z,98689.44
2023-01-09T04:07:37.653Z,98708.50
2023-01-09T04:10:07.295Z,98709.97
2023-01-09T04:12:35.045Z,98707.00
2023-01-09T04:15:02.751Z,98717.06
2023-01-09T04:17:30.519Z,98723.13
2023-01-09T04:19:59.160Z,98721.81
2023-01-09T04:22:28.268Z,98726.69
2023-01-09T04:24:55.980Z,98748.09
2023-01-09T04:27:24.155Z,98755.28
2023-01-09T04:29:51.892Z,98765.09
2023-01-09T04:32:19.561Z,98763.59
2023-01-09T04:34:47.285Z,98779.19
2023-01-09T04:37:15.227Z,98786.25
2023-01-09T04:39:44.324Z,98788.81
2023-01-09T04:42:12.785Z,98796.00
2023-01-09T04:44:40.545Z,98808.03
2023-01-09T04:47:08.472Z,98809.31
2023-01-09T04:49:36.236Z,98816.47
2023-01-09T04:52:04.062Z,98804.53
2023-01-09T04:54:31.944Z,98808.63
2023-01-09T04:57:01.105Z,98810.56
2023-01-09T04:59:28.846Z,98814.56
2023-01-09T05:01:58.249Z,98802.81
2023-01-09T05:04:26.629Z,98815.34
2023-01-09T05:06:54.394Z,98808.06
2023-01-09T05:09:22.777Z,98815.50
2023-01-09T05:11:51.299Z,98821.94
2023-01-09T05:14:20.498Z,98815.59
2023-01-09T05:16:48.212Z,98820.94
2023-01-09T05:19:16.052Z,98828.84
2023-01-09T05:21:43.776Z,98837.13
2023-01-09T05:24:11.694Z,98857.44
2023-01-09T05:26:39.403Z,98853.91
2023-01-09T05:29:07.322Z,98851.59
2023-01-09T05:31:36.756Z,98862.75
2023-01-09T05:34:04.440Z,98869.28
2023-01-09T05:36:32.045Z,98869.69
2023-01-09T05:39:00.484Z,98890.47
2023-01-09T05:41:28.141Z,98895.88
2023-01-09T05:43:55.952Z,98910.59
2023-01-09T05:46:23.665Z,98915.75
2023-01-09T05:48:52.826Z,98922.91
2023-01-09T05:51:20.515Z,98925.88
2023-01-09T05:53:48.236Z,98934.50
2023-01-09T05:56:16.051Z,98937.63
2023-01-09T05:58:43.764Z,98937.47
2023-01-09T06:01:11.535Z,98935.94
2023-01-09T06:03:39.222Z,98944.16
2023-01-09T06:06:08.654Z,98945.47
2023-01-09T06:08:36.523Z,98944.53
2023-01-09T06:11:04.199Z,98943.34
2023-01-09T06:13:31.930Z,98948.03
2023-01-09T06:15:59.932Z,98952.47
2023-01-09T06:18:27.680Z,98954.03
2023-01-09T06:20:55.373Z,98944.66
2023-01-09T06:23:24.500Z,98946.00
2023-01-09T06:25:52.543Z,98947.47
2023-01-09T06:28:20.244Z,98946.84
2023-01-09T06:30:51.595Z,98948.59
2023-01-09T06:33:19.824Z,98940.75
2023-01-09T06:35:47.536Z,98955.19
2023-01-09T06:38:15.247Z,98952.44
2023-01-09T06:40:44.368Z,98953.03
2023-01-09T06:43:12.419Z,98955.44
2023-01-09T06:45:40.183Z,98954.97
2023-01-09T06:48:08.322Z,98960.22
2023-01-09T06:50:36.100Z,98964.53
2023-01-09T06:53:04.647Z,98979.97
2023-01-09T06:55:32.540Z,98979.59
2023-01-09T06:58:01.645Z,98986.44
2023-01-09T07:00:29.823Z,98984.41
2023-01-09T07:02:57.645Z,98977.50
2023-01-09T07:05:25.703Z,98985.78
2023-01-09T07:07:53.693Z,98985.34
2023-01-09T07:10:21.759Z,98985.66
2023-01-09T07:12:49.612Z,98996.16
2023-01-09T07:15:18.805Z,98990.38
2023-01-09T07:17:46.732Z,98976.16
2023-01-09T07:20:14.607Z,98972.59
2023-01-09T07:22:42.364Z,98965.81
2023-01-09T07:25:10.358Z,98976.94
2023-01-09T07:27:38.161Z,98974.47
2023-01-09T07:30:07.987Z,98967.00
2023-01-09T07:32:38.460Z,98986.78
2023-01-09T07:35:07.205Z,98992.53
2023-01-09T07:37:35.285Z,98985.97
2023-01-09T07:40:03.534Z,99004.56
2023-01-09T07:42:31.293Z,99004.22
2023-01-09T07:44:59.044Z,99005.53
2023-01-09T07:47:27.396Z,99010.41
2023-01-09T07:49:56.507Z,99015.19
2023-01-09T07:52:24.222Z,99016.72
2023-01-09T07:54:52.013Z,99022.03
2023-01-09T07:57:19.994Z,99013.25
2023-01-09T07:59:47.837Z,99020.75
2023-01-09T08:02:15.656Z,99019.09
2023-01-09T08:04:43.465Z,99019.44
2023-01-09T08:07:12.654Z,99019.78
2023-01-09T08:09:40.399Z,99021.03
2023-01-09T08:12:08.398Z,99018.69
2023-01-09T08:14:36.686Z,99020.28
2023-01-09T08:17:04.420Z,99022.09
2023-01-09T08:19:32.432Z,99031.56
2023-01-09T08:22:00.264Z,99028.75
2023-01-09T08:24:30.098Z,99034.53
2023-01-09T08:26:57.783Z,99036.94
2023-01-09T08:29:25.607Z,99035.94
2023-01-09T08:31:53.350Z,99038.53
2023-01-09T08:34:21.093Z,99036.06
2023-01-09T08:36:48.908Z,99036.72
2023-01-09T08:39:16.684Z,99028.06
2023-01-09T08:42:03.409Z,99033.38
2023-01-09T08:44:48.569Z,99032.38
2023-01-09T08:47:17.401Z,99029.59
2023-01-09T08:49:45.087Z,99035.69
2023-01-09T08:52:13.680Z,99028.09
2023-01-09T08:54:41.544Z,99034.25
2023-01-09T08:57:10.632Z,99045.31
2023-01-09T08:59:38.353Z,99036.47
2023-01-09T09:02:06.156Z,99041.53
2023-01-09T09:04:33.931Z,99040.94
2023-01-09T09:07:01.628Z,99045.16
2023-01-09T09:09:29.410Z,99041.44
2023-01-09T09:11:57.139Z,99043.59
2023-01-09T09:14:43.853Z,99050.50
2023-01-09T09:17:11.604Z,99051.91
2023-01-09T09:19:42.481Z,99051.91
2023-01-09T09:22:10.217Z,99062.03
2023-01-09T09:24:37.982Z,99061.44
2023-01-09T09:27:05.840Z,99059.44
2023-01-09T09:29:34.903Z,99044.97
2023-01-09T09:32:02.597Z,99048.00
2023-01-09T09:34:30.795Z,99045.81
2023-01-09T09:36:58.470Z,99052.91
2023-01-09T09:39:26.123Z,99045.22
2023-01-09T09:42:31.786Z,99051.75
2023-01-09T09:45:13.145Z,99052.41
2023-01-09T09:47:49.897Z,99061.56
2023-01-09T09:50:49.040Z,99055.56
2023-01-09T09:53:20.454Z,99059.41
2023-01-09T09:55:51.055Z,99061.22
2023-01-09T09:58:23.172Z,99060.16
2023-01-09T10:00:53.665Z,99046.41
2023-01-09T10:03:33.887Z,99061.88
2023-01-09T10:06:06.243Z,99054.97
2023-01-09T10:08:41.437Z,99060.28
2023-01-09T10:11:16.623Z,99080.00
2023-01-09T10:14:04.187Z,99075.56
2023-01-09T10:16:56.288Z,99073.84
2023-01-09T10:19:47.611Z,99074.59
2023-01-09T10:22:25.228Z,99078.34
2023-01-09T10:25:13.578Z,99077.41
2023-01-09T10:27:58.241Z,99088.78
2023-01-09T10:30:33.890Z,99080.97
2023-01-09T10:33:14.431Z,99084.53
2023-01-09T10:35:56.691Z,99077.16
2023-01-09T10:38:29.590Z,99067.78
2023-01-09T10:41:03.935Z,99064.69
2023-01-09T10:43:39.868Z,99063.81
2023-01-09T10:46:13.184Z,99054.72
2023-01-09T10:48:46.674Z,99061.84
2023-01-09T10:51:19.851Z,99054.06
2023-01-09T10:53:52.052Z,99054.59
2023-01-09T10:56:24.468Z,99048.63
2023-01-09T10:58:53.969Z,99052.34
2023-01-09T11:01:26.933Z,99039.97
2023-01-09T11:03:59.078Z,99038.50
2023-01-09T11:06:30.997Z,99049.94
2023-01-09T11:09:01.615Z,99044.50
2023-01-09T11:11:34.990Z,99044.09
2023-01-09T11:14:10.397Z,99054.50
2023-01-09T11:16:38.200Z,99053.59
2023-01-09T11:19:15.264Z,99064.63
2023-01-09T11:21:42.995Z,99066.84
2023-01-09T11:24:28.613Z,99061.19
2023-01-09T11:27:24.439Z,99060.91
2023-01-09T11:30:14.740Z,99063.94
2023-01-09T11:32:43.046Z,99065.69
2023-01-09T11:35:20.630Z,99067.72
2023-01-09T11:37:50.121Z,99071.81
2023-01-09T11:40:19.980Z,99068.13
2023-01-09T11:43:11.405Z,99069.47
2023-01-09T11:45:53.196Z,99063.84
2023-01-09T11:48:34.586Z,99065.63
2023-01-09T11:51:06.810Z,99065.63
2023-01-09T11:53:56.543Z,99060.41
2023-01-09T11:56:24.721Z,99064.53
2023-01-09T11:58:52.555Z,99064.84
2023-01-09T12:01:54.483Z,99060.59
2023-01-09T12:04:29.459Z,99055.16
2023-01-09T12:07:23.718Z,99059.81
2023-01-09T12:10:01.979Z,99063.25
2023-01-09T12:12:37.898Z,99059.31
2023-01-09T12:15:24.600Z,99070.28
2023-01-09T12:18:08.966Z,99066.47
2023-01-09T12:20:52.442Z,99066.28
2023-01-09T12:23:33.413Z,99061.50
2023-01-09T12:26:11.577Z,99063.59
2023-01-09T12:29:12.061Z,99065.38
2023-01-09T12:32:00.847Z,99070.97
2023-01-09T12:34:43.801Z,99081.84
2023-01-09T12:37:32.478Z,99075.53
2023-01-09T12:40:12.512Z,99081.00
2023-01-09T12:42:51.278Z,99073.72
2023-01-09T12:45:41.323Z,99077.69
2023-01-09T12:48:21.425Z,99079.28
2023-01-09T12:51:10.224Z,99087.53
2023-01-09T12:53:44.151Z,99086.88
2023-01-09T12:56:19.396Z,99091.13
2023-01-09T12:58:50.432Z,99093.47
2023-01-09T13:01:23.230Z,99088.47
2023-01-09T13:04:01.903Z,99088.13
2023-01-09T13:06:32.556Z,99083.44
2023-01-09T13:09:14.358Z,99081.38
2023-01-09T13:11:50.959Z,99077.09
2023-01-09T13:14:25.414Z,99078.69
2023-01-09T13:16:55.941Z,99086.25
2023-01-09T13:19:28.205Z,99078.19
2023-01-09T13:21:58.632Z,99091.59
2023-01-09T13:24:34.712Z,99089.25
2023-01-09T13:27:07.982Z,99078.41
2023-01-09T13:29:39.577Z,99081.44
2023-01-09T13:32:36.244Z,99085.47
2023-01-09T13:35:04.961Z,99087.50
2023-01-09T13:37:35.365Z,99079.69
2023-01-09T13:40:06.053Z,99079.81
2023-01-09T13:42:39.143Z,99085.53
2023-01-09T13:45:19.775Z,99080.25
2023-01-09T13:47:47.878Z,99085.03
2023-01-09T13:50:25.254Z,99090.03
2023-01-09T13:52:53.602Z,99090.34
2023-01-09T13:55:28.882Z,99088.16
2023-01-09T13:58:25.441Z,99096.91
2023-01-09T14:01:00.061Z,99100.47
2023-01-09T14:03:32.995Z,99107.75
2023-01-09T14:06:25.097Z,99110.84
2023-01-09T14:09:13.688Z,99106.75
2023-01-09T14:11:41.690Z,99116.69
2023-01-09T14:14:27.372Z,99116.38
2023-01-09T14:16:55.244Z,99122.97
2023-01-09T14:19:35.943Z,99124.72
2023-01-09T14:22:05.075Z,99123.16
2023-01-09T14:24:40.483Z,99126.75
2023-01-09T14:27:47.874Z,99134.94
2023-01-09T14:30:31.700Z,99134.00
2023-01-09T14:33:03.019Z,99135.44
2023-01-09T14:35:39.975Z,99140.38
2023-01-09T14:38:26.982Z,99145.63
2023-01-09T14:40:59.854Z,99139.22
2023-01-09T14:43:45.117Z,99134.44
2023-01-09T14:46:18.774Z,99142.06
2023-01-09T14:48:58.161Z,99144.78
2023-01-09T14:51:28.860Z,99166.09
2023-01-09T14:53:59.920Z,99181.06
2023-01-09T14:56:30.168Z,99183.44
2023-01-09T14:59:06.061Z,99175.81
2023-01-09T15:01:37.215Z,99182.97
2023-01-09T15:04:09.134Z,99178.81
2023-01-09T15:06:41.636Z,99191.75
2023-01-09T15:09:21.299Z,99194.16
2023-01-09T15:11:49.888Z,99203.13
2023-01-09T15:14:26.829Z,99211.72
2023-01-09T15:16:56.237Z,99214.47
2023-01-09T15:19:24.531Z,99216.91
2023-01-09T15:22:00.428Z,99229.00
2023-01-09T15:24:29.963Z,99229.38
2023-01-09T15:26:59.782Z,99232.66
2023-01-09T15:29:28.678Z,99242.75
2023-01-09T15:32:02.862Z,99247.44
2023-01-09T15:34:30.803Z,99247.28
2023-01-09T15:36:58.682Z,99249.03
2023-01-09T15:39:29.274Z,99255.41
2023-01-09T15:42:15.001Z,99256.94
2023-01-09T15:44:46.336Z,99260.09
2023-01-09T15:47:21.225Z,99264.88
2023-01-09T15:49:49.645Z,99263.97
2023-01-09T15:52:19.157Z,99270.41
2023-01-09T15:54:47.505Z,99278.66
2023-01-09T15:57:34.043Z,99290.28
2023-01-09T16:00:31.997Z,99282.25
2023-01-09T16:03:11.160Z,99288.50
2023-01-09T16:05:43.459Z,99289.63
2023-01-09T16:08:35.866Z,99294.75
2023-01-09T16:11:05.944Z,99311.56
2023-01-09T16:13:39.269Z,99316.53
2023-01-09T16:16:08.253Z,99315.00
2023-01-09T16:18:39.700Z,99317.44
2023-01-09T16:21:32.749Z,99325.34
2023-01-09T16:24:03.548Z,99330.06
2023-01-09T16:26:32.703Z,99330.38
2023-01-09T16:29:28.467Z,99339.25
2023-01-09T16:32:00.439Z,99342.13
2023-01-09T16:34:29.937Z,99338.59
2023-01-09T16:36:57.877Z,99345.31
2023-01-09T16:39:26.436Z,99342.13
2023-01-09T16:42:15.114Z,99350.16
2023-01-09T16:44:42.874Z,99345.06
2023-01-09T16:47:12.595Z,99342.34
2023-01-09T16:49:41.592Z,99351.41
2023-01-09T16:52:16.440Z,99360.16
2023-01-09T16:54:46.686Z,99367.00
2023-01-09T16:57:18.154Z,99374.78
2023-01-09T16:59:46.662Z,99377.91
2023-01-09T17:02:18.836Z,99386.72
2023-01-09T17:04:47.983Z,99387.56
2023-01-09T17:07:17.502Z,99401.19
2023-01-09T17:09:45.712Z,99407.81
2023-01-09T17:12:17.696Z,99412.47
2023-01-09T17:14:45.392Z,99422.63
2023-01-09T17:17:13.301Z,99416.69
2023-01-09T17:19:41.037Z,99432.41
2023-01-09T17:22:10.618Z,99433.88
2023-01-09T17:24:55.717Z,99438.94
2023-01-09T17:27:44.978Z,99440.91
2023-01-09T17:30:18.939Z,99445.66
2023-01-09T17:32:47.398Z,99447.47
2023-01-09T17:35:16.118Z,99458.06
2023-01-09T17:37:45.785Z,99470.03
2023-01-09T17:40:19.731Z,99470.22
2023-01-09T17:42:47.512Z,99485.13
2023-01-09T17:45:15.641Z,99484.28
2023-01-09T17:47:43.322Z,99492.94
2023-01-09T17:50:18.725Z,99499.22
2023-01-09T17:52:47.991Z,99497.50
2023-01-09T17:55:15.927Z,99506.47
2023-01-09T17:57:44.473Z,99503.25
2023-01-09T18:00:24.811Z,99519.81
2023-01-09T18:02:53.367Z,99534.63
2023-01-09T18:05:21.658Z,99535.41
2023-01-09T18:07:51.331Z,99546.78
2023-01-09T18:10:23.084Z,99541.59
2023-01-09T18:12:51.803Z,99552.66
2023-01-09T18:15:19.717Z,99556.84
2023-01-09T18:17:47.835Z,99563.47
2023-01-09T18:20:15.724Z,99570.63
2023-01-09T18:22:43.446Z,99571.94
2023-01-09T18:25:12.804Z,99575.66
2023-01-09T18:27:40.607Z,99578.03
2023-01-09T18:30:09.524Z,99579.47
2023-01-09T18:32:39.975Z,99588.56
2023-01-09T18:35:08.777Z,99592.03
2023-01-09T18:37:37.120Z,99607.66
2023-01-09T18:40:05.830Z,99610.53
2023-01-09T18:42:34.928Z,99618.25
2023-01-09T18:45:02.821Z,99623.72
2023-01-09T18:47:30.549Z,99634.47
2023-01-09T18:49:58.209Z,99636.41
2023-01-09T18:52:26.102Z,99642.69
2023-01-09T18:54:53.819Z,99635.94
2023-01-09T18:57:21.647Z,99643.56
2023-01-09T18:59:50.747Z,99644.38
2023-01-09T19:02:20.532Z,99642.13
2023-01-09T19:04:48.275Z,99651.28
2023-01-09T19:07:16.374Z,99643.50
2023-01-09T19:09:44.596Z,99663.16
2023-01-09T19:12:12.866Z,99665.78
2023-01-09T19:14:40.606Z,99669.16
2023-01-09T19:17:09.857Z,99670.06
2023-01-09T19:19:37.729Z,99668.97
2023-01-09T19:22:05.906Z,99674.06
2023-01-09T19:24:33.802Z,99676.69
2023-01-09T19:27:01.603Z,99682.00
2023-01-09T19:29:29.432Z,99687.72
2023-01-09T19:31:57.485Z,99681.97
2023-01-09T19:34:26.762Z,99678.25
2023-01-09T19:36:54.771Z,99683.28
2023-01-09T19:39:22.767Z,99685.13
2023-01-09T19:41:50.459Z,99681.50
2023-01-09T19:44:18.964Z,99680.44
2023-01-09T19:46:46.725Z,99690.84
2023-01-09T19:49:14.392Z,99695.78
2023-01-09T19:51:43.453Z,99714.22
2023-01-09T19:54:11.924Z,99716.09
2023-01-09T19:56:43.683Z,99725.97
2023-01-09T19:59:11.995Z,99734.06
2023-01-09T20:01:42.491Z,99741.94
2023-01-09T20:04:15.198Z,99734.47
2023-01-09T20:06:46.665Z,99751.09
2023-01-09T20:09:16.456Z,99758.41
2023-01-09T20:11:44.746Z,99765.47
2023-01-09T20:14:13.676Z,99776.59
2023-01-09T20:16:42.447Z,99770.44
2023-01-09T20:19:11.863Z,99771.00
2023-01-09T20:21:39.530Z,99770.09
2023-01-09T20:24:09.985Z,99772.41
2023-01-09T20:26:39.480Z,99776.69
2023-01-09T20:29:08.746Z,99775.72
2023-01-09T20:31:37.020Z,99773.13
2023-01-09T20:34:05.060Z,99784.06
2023-01-09T20:36:34.826Z,99764.03
2023-01-09T20:39:05.017Z,99774.06
2023-01-09T20:41:34.661Z,99776.47
2023-01-09T20:44:04.956Z,99777.03
2023-01-09T20:46:36.791Z,99784.81
2023-01-09T20:49:06.620Z,99782.72
2023-01-09T20:51:34.793Z,99782.44
2023-01-09T20:54:03.575Z,99787.03
2023-01-09T20:56:32.846Z,99791.16
2023-01-09T20:59:01.896Z,99799.16
2023-01-09T21:01:29.904Z,99801.69
2023-01-09T21:03:57.910Z,99810.31
2023-01-09T21:06:26.631Z,99808.38
2023-01-09T21:08:54.521Z,99815.13
2023-01-09T21:11:23.541Z,99812.53
2023-01-09T21:13:51.739Z,99811.50
2023-01-09T21:16:24.258Z,99821.19
2023-01-09T21:18:54.095Z,99818.78
2023-01-09T21:21:23.929Z,99817.25
2023-01-09T21:23:53.684Z,99819.94
2023-01-09T21:26:24.747Z,99840.19
2023-01-09T21:28:54.998Z,99831.69
2023-01-09T21:31:26.292Z,99845.41
2023-01-09T21:33:55.230Z,99840.03
2023-01-09T21:36:23.159Z,99851.38
2023-01-09T21:38:52.184Z,99859.13
2023-01-09T21:41:39.848Z,99854.00
2023-01-09T21:44:25.336Z,99858.47
2023-01-09T21:46:56.131Z,99858.63
2023-01-09T21:49:25.448Z,99861.19
2023-01-09T21:51:54.044Z,99875.63
2023-01-09T21:54:23.176Z,99870.25
2023-01-09T21:56:51.002Z,99880.28
2023-01-09T21:59:19.207Z,99878.47
2023-01-09T22:01:48.411Z,99886.94
2023-01-09T22:04:19.109Z,99897.16
2023-01-09T22:06:46.879Z,99899.69
2023-01-09T22:09:15.192Z,99892.72
2023-01-09T22:11:44.010Z,99903.97
2023-01-09T22:14:14.384Z,99907.38
2023-01-09T22:16:42.293Z,99909.22
2023-01-09T22:19:10.255Z,99910.06
2023-01-09T22:21:39.639Z,99915.28
2023-01-09T22:24:08.098Z,99912.72
2023-01-09T22:26:36.105Z,99918.69
2023-01-09T22:29:03.901Z,99923.06
2023-01-09T22:31:32.763Z,99925.69
2023-01-09T22:34:02.312Z,99927.28
2023-01-09T22:36:31.729Z,99928.97
2023-01-09T22:39:01.702Z,99937.44
2023-01-09T22:41:30.743Z,99949.25
2023-01-09T22:43:58.443Z,99951.88
2023-01-09T22:46:26.485Z,99957.09
2023-01-09T22:48:54.234Z,99960.56
2023-01-09T22:51:22.806Z,99973.38
2023-01-09T22:53:51.149Z,99980.34
2023-01-09T22:56:22.737Z,99980.34
2023-01-09T22:58:52.221Z,99980.38
2023-01-09T23:01:20.807Z,99981.22
2023-01-09T23:03:49.038Z,99991.69
2023-01-09T23:06:19.980Z,99988.41
2023-01-09T23:08:47.847Z,99992.19
2023-01-09T23:11:39.931Z,99998.59
2023-01-09T23:14:09.189Z,99997.19
2023-01-09T23:16:37.051Z,100003.47
2023-01-09T23:19:06.928Z,100012.06
2023-01-09T23:21:34.620Z,100010.22
2023-01-09T23:24:02.435Z,100021.44
2023-01-09T23:26:30.103Z,100025.66
2023-01-09T23:28:57.758Z,100025.72
2023-01-09T23:31:27.415Z,100037.78
2023-01-09T23:33:55.196Z,100036.16
2023-01-09T23:36:23.385Z,100039.59
2023-01-09T23:38:51.149Z,100045.28
2023-01-09T23:41:19.084Z,100051.16
2023-01-09T23:43:46.095Z,100055.41
2023-01-09T23:46:14.024Z,100058.97
2023-01-09T23:48:43.162Z,100066.69
2023-01-09T23:51:10.929Z,100070.09
2023-01-09T23:53:38.908Z,100081.28
2023-01-09T23:56:06.800Z,100083.66
2023-01-09T23:58:34.573Z,100090.41
